createdAt,value
2017-05-26T00:01:46.083Z,26.32
2017-05-26T00:04:14.409Z,28.05
2017-05-26T00:06:42.619Z,28.07
2017-05-26T00:09:10.869Z,25.25
2017-05-26T00:11:39.275Z,26.05
2017-05-26T00:14:07.500Z,25.18
2017-05-26T00:16:35.740Z,25.95
2017-05-26T00:19:03.993Z,24.98
2017-05-26T00:21:32.270Z,25.08
2017-05-26T00:24:00.502Z,25.63
2017-05-26T00:26:28.702Z,26.10
2017-05-26T00:28:56.927Z,24.72
2017-05-26T00:31:25.135Z,24.90
2017-05-26T00:33:53.436Z,25.13
2017-05-26T00:36:21.659Z,23.85
2017-05-26T00:38:49.980Z,25.87
2017-05-26T00:41:18.330Z,24.95
2017-05-26T00:43:46.531Z,24.30
2017-05-26T00:46:14.775Z,25.30
2017-05-26T00:48:42.988Z,26.05
2017-05-26T00:51:11.203Z,25.87
2017-05-26T00:53:39.416Z,24.77
2017-05-26T00:56:07.711Z,24.68
2017-05-26T00:58:35.979Z,24.10
2017-05-26T01:01:04.191Z,23.12
2017-05-26T01:03:32.430Z,23.70
2017-05-26T01:06:00.726Z,22.82
2017-05-26T01:08:28.964Z,24.13
2017-05-26T01:10:57.179Z,25.22
2017-05-26T01:13:25.398Z,23.52
2017-05-26T01:15:53.676Z,24.93
2017-05-26T01:18:21.891Z,25.05
2017-05-26T01:20:50.194Z,25.45
2017-05-26T01:23:18.404Z,24.40
2017-05-26T01:25:46.617Z,25.00
2017-05-26T01:28:14.891Z,23.85
2017-05-26T01:30:43.099Z,24.52
2017-05-26T01:33:11.514Z,24.93
2017-05-26T01:35:39.720Z,24.25
2017-05-26T01:38:07.935Z,22.85
2017-05-26T01:40:36.162Z,23.80
2017-05-26T01:43:04.367Z,23.30
2017-05-26T01:45:32.595Z,23.20
2017-05-26T01:48:00.819Z,22.53
2017-05-26T01:50:29.038Z,24.12
2017-05-26T01:52:57.243Z,23.12
2017-05-26T01:55:25.490Z,23.28
2017-05-26T01:57:53.703Z,24.55
2017-05-26T02:00:21.914Z,22.90
2017-05-26T02:02:50.219Z,23.10
2017-05-26T02:05:18.426Z,24.48
2017-05-26T02:07:46.673Z,24.00
2017-05-26T02:10:14.953Z,24.42
2017-05-26T02:12:43.687Z,24.50
2017-05-26T02:15:12.011Z,24.82
2017-05-26T02:17:40.283Z,23.88
2017-05-26T02:20:08.499Z,26.25
2017-05-26T02:22:36.734Z,24.32
2017-05-26T02:25:04.953Z,25.82
2017-05-26T02:27:33.237Z,27.12
2017-05-26T02:30:01.591Z,28.65
2017-05-26T02:32:29.795Z,28.18
2017-05-26T02:34:58.089Z,27.35
2017-05-26T02:37:26.291Z,27.07
2017-05-26T02:39:54.515Z,26.30
2017-05-26T02:42:22.835Z,27.82
2017-05-26T02:44:51.113Z,26.55
2017-05-26T02:47:19.443Z,27.22
2017-05-26T02:49:47.651Z,28.76
2017-05-26T02:52:15.875Z,28.33
2017-05-26T02:54:44.087Z,27.40
2017-05-26T02:57:12.338Z,29.22
2017-05-26T02:59:40.656Z,26.40
2017-05-26T03:02:08.883Z,26.60
2017-05-26T03:04:37.203Z,27.16
2017-05-26T03:07:05.435Z,26.28
2017-05-26T03:09:33.758Z,25.58
2017-05-26T03:12:02.021Z,25.93
2017-05-26T03:14:30.303Z,25.85
2017-05-26T03:16:58.562Z,25.38
2017-05-26T03:19:26.769Z,25.15
2017-05-26T03:21:54.998Z,24.80
2017-05-26T03:24:23.249Z,24.77
2017-05-26T03:26:51.583Z,23.20
2017-05-26T03:29:19.804Z,26.13
2017-05-26T03:31:48.026Z,24.28
2017-05-26T03:34:16.244Z,26.75
2017-05-26T03:36:44.498Z,26.33
2017-05-26T03:39:12.711Z,26.36
2017-05-26T03:41:41.043Z,27.00
2017-05-26T03:44:09.432Z,28.20
2017-05-26T03:46:37.646Z,27.98
2017-05-26T03:49:05.963Z,29.72
2017-05-26T03:51:34.188Z,28.28
2017-05-26T03:54:02.398Z,27.90
2017-05-26T03:56:30.784Z,29.18
2017-05-26T03:58:58.987Z,28.73
2017-05-26T04:01:27.207Z,29.93
2017-05-26T04:03:55.507Z,29.78
2017-05-26T04:06:23.743Z,30.33
2017-05-26T04:08:51.961Z,28.98
2017-05-26T04:11:20.239Z,29.03
2017-05-26T04:13:48.469Z,29.66
2017-05-26T04:16:16.695Z,31.10
2017-05-26T04:18:44.964Z,29.97
2017-05-26T04:21:13.246Z,28.83
2017-05-26T04:23:41.450Z,26.67
2017-05-26T04:26:09.667Z,27.28
2017-05-26T04:28:37.927Z,27.45
2017-05-26T04:31:06.164Z,26.73
2017-05-26T04:33:34.432Z,28.00
2017-05-26T04:36:02.626Z,27.10
2017-05-26T04:38:30.969Z,28.63
2017-05-26T04:40:59.210Z,28.78
2017-05-26T04:43:27.439Z,28.52
2017-05-26T04:45:55.678Z,28.93
2017-05-26T04:48:23.906Z,28.95
2017-05-26T04:50:52.233Z,31.20
2017-05-26T04:53:20.524Z,29.35
2017-05-26T04:55:48.783Z,27.10
2017-05-26T04:58:17.011Z,28.50
2017-05-26T05:00:45.223Z,27.22
2017-05-26T05:03:13.439Z,26.57
2017-05-26T05:05:41.782Z,28.68
2017-05-26T05:08:10.053Z,27.27
2017-05-26T05:10:38.286Z,27.35
2017-05-26T05:13:06.543Z,28.47
2017-05-26T05:15:34.800Z,27.42
2017-05-26T05:18:03.051Z,28.98
2017-05-26T05:20:31.340Z,26.97
2017-05-26T05:22:59.607Z,26.22
2017-05-26T05:25:27.896Z,25.22
2017-05-26T05:27:56.108Z,24.92
2017-05-26T05:30:24.428Z,23.53
2017-05-26T05:32:52.645Z,24.58
2017-05-26T05:35:20.858Z,23.40
2017-05-26T05:37:49.125Z,24.05
2017-05-26T05:40:17.343Z,22.07
2017-05-26T05:42:45.599Z,22.52
2017-05-26T05:45:13.850Z,21.36
2017-05-26T05:47:42.273Z,22.52
2017-05-26T05:50:09.714Z,22.55
2017-05-26T05:52:37.993Z,20.92
2017-05-26T05:55:06.207Z,20.50
2017-05-26T05:57:34.539Z,20.13
2017-05-26T06:00:02.749Z,20.83
2017-05-26T06:02:31.087Z,20.52
2017-05-26T06:04:59.295Z,19.83
2017-05-26T06:07:27.551Z,19.42
2017-05-26T06:09:55.934Z,20.77
2017-05-26T06:12:24.147Z,18.67
2017-05-26T06:14:52.481Z,18.18
2017-05-26T06:17:20.705Z,18.68
2017-05-26T06:19:48.927Z,18.73
2017-05-26T06:22:17.263Z,17.62
2017-05-26T06:24:45.474Z,16.76
2017-05-26T06:27:13.746Z,17.42
2017-05-26T06:29:41.960Z,16.33
2017-05-26T06:32:10.180Z,16.30
2017-05-26T06:34:38.560Z,15.10
2017-05-26T06:37:07.646Z,14.52
2017-05-26T06:39:35.873Z,16.00
2017-05-26T06:42:04.111Z,16.04
2017-05-26T06:44:32.351Z,15.73
2017-05-26T06:47:00.617Z,14.78
2017-05-26T06:49:28.860Z,14.90
2017-05-26T06:51:57.153Z,13.98
2017-05-26T06:54:25.380Z,14.88
2017-05-26T06:56:53.660Z,15.13
2017-05-26T06:59:21.875Z,14.17
2017-05-26T07:01:50.100Z,14.77
2017-05-26T07:04:18.383Z,14.90
2017-05-26T07:06:46.591Z,14.60
2017-05-26T07:09:14.812Z,15.15
2017-05-26T07:11:43.050Z,15.13
2017-05-26T07:14:11.279Z,15.48
2017-05-26T07:16:39.554Z,14.55
2017-05-26T07:19:07.817Z,14.83
2017-05-26T07:21:36.039Z,14.58
2017-05-26T07:24:04.287Z,14.42
2017-05-26T07:26:32.569Z,14.22
2017-05-26T07:29:00.910Z,14.20
2017-05-26T07:31:29.492Z,13.38
2017-05-26T07:33:57.832Z,13.37
2017-05-26T07:36:26.043Z,13.15
2017-05-26T07:38:54.282Z,12.72
2017-05-26T07:41:22.965Z,12.20
2017-05-26T07:43:51.367Z,12.12
2017-05-26T07:46:19.628Z,13.17
2017-05-26T07:48:47.848Z,12.40
2017-05-26T07:51:16.055Z,12.93
2017-05-26T07:53:44.311Z,11.58
2017-05-26T07:56:12.618Z,11.52
2017-05-26T07:58:40.852Z,12.10
2017-05-26T08:01:09.152Z,12.06
2017-05-26T08:03:37.379Z,11.85
2017-05-26T08:06:05.662Z,12.20
2017-05-26T08:08:33.930Z,12.47
2017-05-26T08:11:02.205Z,10.52
2017-05-26T08:13:30.492Z,11.32
2017-05-26T08:15:58.777Z,12.12
2017-05-26T08:18:27.024Z,11.75
2017-05-26T08:20:55.252Z,11.10
2017-05-26T08:23:23.596Z,12.08
2017-05-26T08:25:51.878Z,11.32
2017-05-26T08:28:20.101Z,12.55
2017-05-26T08:30:48.376Z,12.50
2017-05-26T08:33:16.621Z,12.35
2017-05-26T08:35:44.858Z,12.58
2017-05-26T08:38:13.098Z,13.63
2017-05-26T08:40:41.418Z,13.53
2017-05-26T08:43:09.711Z,14.92
2017-05-26T08:45:37.933Z,12.97
2017-05-26T08:48:06.234Z,12.73
2017-05-26T08:50:34.539Z,13.28
2017-05-26T08:53:02.757Z,11.90
2017-05-26T08:55:30.993Z,13.33
2017-05-26T08:57:59.340Z,13.37
2017-05-26T09:00:27.733Z,13.00
2017-05-26T09:02:55.975Z,13.05
2017-05-26T09:05:24.193Z,12.84
2017-05-26T09:07:52.429Z,13.95
2017-05-26T09:10:20.661Z,14.20
2017-05-26T09:12:48.965Z,12.92
2017-05-26T09:15:17.214Z,13.23
2017-05-26T09:17:45.490Z,12.98
2017-05-26T09:20:13.839Z,12.53
2017-05-26T09:22:42.108Z,13.42
2017-05-26T09:25:10.330Z,12.80
2017-05-26T09:27:38.598Z,13.70
2017-05-26T09:30:06.856Z,13.85
2017-05-26T09:32:35.073Z,16.90
2017-05-26T09:35:03.319Z,13.00
2017-05-26T09:37:31.539Z,13.56
2017-05-26T09:39:59.786Z,12.90
2017-05-26T09:42:28.028Z,12.60
2017-05-26T09:44:56.283Z,12.32
2017-05-26T09:47:24.598Z,11.30
2017-05-26T09:49:52.819Z,10.30
2017-05-26T09:52:21.127Z,11.60
2017-05-26T09:54:49.368Z,11.67
2017-05-26T09:57:17.601Z,11.80
2017-05-26T09:59:45.931Z,11.40
2017-05-26T10:02:14.157Z,11.50
2017-05-26T10:04:42.473Z,10.70
2017-05-26T10:07:10.733Z,11.12
2017-05-26T10:09:38.953Z,12.62
2017-05-26T10:12:07.182Z,12.87
2017-05-26T10:14:35.525Z,12.37
2017-05-26T10:17:03.751Z,12.53
2017-05-26T10:19:32.056Z,12.28
2017-05-26T10:22:00.315Z,12.45
2017-05-26T10:24:28.534Z,12.98
2017-05-26T10:26:56.837Z,12.65
2017-05-26T10:29:25.091Z,12.75
2017-05-26T10:31:53.378Z,13.48
2017-05-26T10:34:21.617Z,13.60
2017-05-26T10:36:49.931Z,11.67
2017-05-26T10:39:18.207Z,13.52
2017-05-26T10:41:46.468Z,12.90
2017-05-26T10:44:14.677Z,11.98
2017-05-26T10:46:42.900Z,12.28
2017-05-26T10:49:11.135Z,12.40
2017-05-26T10:51:39.388Z,12.77
2017-05-26T10:54:07.691Z,11.30
2017-05-26T10:56:35.929Z,12.15
2017-05-26T10:59:03.405Z,11.60
2017-05-26T11:01:31.637Z,11.32
2017-05-26T11:03:59.946Z,12.00
2017-05-26T11:06:28.239Z,12.66
2017-05-26T11:08:56.476Z,13.87
2017-05-26T11:11:24.780Z,13.58
2017-05-26T11:13:53.012Z,14.30
2017-05-26T11:16:21.443Z,13.40
2017-05-26T11:18:49.821Z,12.40
2017-05-26T11:21:18.055Z,11.65
2017-05-26T11:23:46.303Z,10.32
2017-05-26T11:26:14.514Z,10.80
2017-05-26T11:28:42.757Z,11.07
2017-05-26T11:31:10.981Z,11.43
2017-05-26T11:33:39.251Z,11.10
2017-05-26T11:36:07.507Z,11.98
2017-05-26T11:38:35.734Z,11.12
2017-05-26T11:41:04.067Z,11.30
2017-05-26T11:43:32.288Z,11.23
2017-05-26T11:46:00.526Z,9.86
2017-05-26T11:48:28.738Z,10.58
2017-05-26T11:50:56.969Z,8.93
2017-05-26T11:53:25.267Z,9.33
2017-05-26T11:55:53.515Z,10.36
2017-05-26T11:58:21.797Z,10.12
2017-05-26T12:00:50.029Z,9.90
2017-05-26T12:03:18.243Z,9.87
2017-05-26T12:05:46.464Z,9.00
2017-05-26T12:08:14.799Z,8.15
2017-05-26T12:10:43.032Z,9.53
2017-05-26T12:13:11.257Z,9.80
2017-05-26T12:15:39.522Z,8.67
2017-05-26T12:18:07.079Z,8.88
2017-05-26T12:20:35.340Z,10.30
2017-05-26T12:23:03.594Z,10.35
2017-05-26T12:25:31.905Z,11.22
2017-05-26T12:28:00.148Z,11.48
2017-05-26T12:30:28.465Z,10.40
2017-05-26T12:32:56.762Z,11.10
2017-05-26T12:35:25.663Z,9.58
2017-05-26T12:37:53.919Z,10.33
2017-05-26T12:40:22.171Z,10.37
2017-05-26T12:42:50.514Z,10.98
2017-05-26T12:45:18.833Z,11.02
2017-05-26T12:47:47.081Z,9.65
2017-05-26T12:50:15.328Z,10.54
2017-05-26T12:52:43.567Z,11.55
2017-05-26T12:55:11.903Z,10.12
2017-05-26T12:57:40.218Z,11.00
2017-05-26T13:00:08.478Z,10.76
2017-05-26T13:02:36.711Z,11.35
2017-05-26T13:05:05.074Z,10.87
2017-05-26T13:07:33.305Z,11.32
2017-05-26T13:10:01.627Z,11.10
2017-05-26T13:12:29.869Z,11.07
2017-05-26T13:14:58.226Z,10.57
2017-05-26T13:17:26.546Z,10.90
2017-05-26T13:19:54.800Z,10.03
2017-05-26T13:22:23.065Z,9.62
2017-05-26T13:24:51.297Z,8.88
2017-05-26T13:27:19.554Z,9.25
2017-05-26T13:29:47.768Z,10.13
2017-05-26T13:32:16.125Z,11.00
2017-05-26T13:34:44.498Z,9.14
2017-05-26T13:37:12.740Z,8.82
2017-05-26T13:39:41.127Z,9.50
2017-05-26T13:42:09.345Z,9.98
2017-05-26T13:44:37.571Z,9.88
2017-05-26T13:47:05.802Z,10.62
2017-05-26T13:49:34.021Z,10.73
2017-05-26T13:52:01.488Z,9.53
2017-05-26T13:54:29.795Z,8.63
2017-05-26T13:56:58.234Z,8.87
2017-05-26T13:59:26.431Z,8.46
2017-05-26T14:01:54.647Z,9.03
2017-05-26T14:04:22.929Z,10.03
2017-05-26T14:06:51.143Z,8.95
2017-05-26T14:09:19.417Z,9.10
2017-05-26T14:11:47.647Z,9.03
2017-05-26T14:14:15.917Z,8.47
2017-05-26T14:16:44.126Z,7.58
2017-05-26T14:19:12.429Z,6.32
2017-05-26T14:21:40.684Z,5.65
2017-05-26T14:24:08.912Z,6.60
2017-05-26T14:26:37.135Z,6.72
2017-05-26T14:29:05.351Z,7.00
2017-05-26T14:31:33.660Z,7.30
2017-05-26T14:34:01.962Z,7.10
2017-05-26T14:36:30.193Z,7.30
2017-05-26T14:38:58.579Z,7.08
2017-05-26T14:41:26.798Z,6.58
2017-05-26T14:43:55.019Z,6.28
2017-05-26T14:46:23.299Z,5.85
2017-05-26T14:48:51.656Z,7.07
2017-05-26T14:51:19.856Z,4.50
2017-05-26T14:53:48.156Z,3.83
2017-05-26T14:56:16.406Z,2.90
2017-05-26T14:58:44.783Z,3.38
2017-05-26T15:01:12.974Z,2.97
2017-05-26T15:03:41.199Z,3.10
2017-05-26T15:06:09.412Z,3.05
2017-05-26T15:08:37.812Z,2.50
2017-05-26T15:11:06.075Z,2.70
2017-05-26T15:13:34.306Z,3.45
2017-05-26T15:16:02.528Z,2.98
2017-05-26T15:18:30.731Z,3.80
2017-05-26T15:20:59.095Z,3.67
2017-05-26T15:23:27.467Z,3.33
2017-05-26T15:25:55.818Z,3.17
2017-05-26T15:28:24.017Z,3.80
2017-05-26T15:30:53.135Z,3.30
2017-05-26T15:33:21.359Z,3.12
2017-05-26T15:35:49.632Z,3.77
2017-05-26T15:38:17.933Z,3.53
2017-05-26T15:40:46.168Z,3.02
2017-05-26T15:43:14.596Z,3.18
2017-05-26T15:45:42.971Z,3.05
2017-05-26T15:51:03.296Z,3.37
2017-05-26T15:53:31.545Z,3.40
2017-05-26T15:55:59.836Z,3.17
2017-05-26T15:58:28.115Z,3.10
2017-05-26T16:00:56.333Z,3.18
2017-05-26T16:03:24.659Z,2.82
2017-05-26T16:05:52.867Z,3.00
2017-05-26T16:08:21.112Z,3.18
2017-05-26T16:10:49.377Z,2.72
2017-05-26T16:13:17.613Z,2.92
2017-05-26T16:15:45.825Z,2.60
2017-05-26T16:18:14.039Z,2.93
2017-05-26T16:20:42.243Z,2.88
2017-05-26T16:23:11.472Z,3.72
2017-05-26T16:25:39.816Z,3.52
2017-05-26T16:28:08.037Z,4.18
2017-05-26T16:30:36.294Z,3.80
2017-05-26T16:33:04.512Z,3.22
2017-05-26T16:35:32.722Z,3.50
2017-05-26T16:38:00.943Z,3.40
2017-05-26T16:40:29.154Z,3.30
2017-05-26T16:42:57.377Z,3.26
2017-05-26T16:45:25.741Z,3.53
2017-05-26T16:47:53.180Z,3.02
2017-05-26T16:50:22.504Z,6.58
2017-05-26T16:52:50.792Z,8.30
2017-05-26T16:55:18.990Z,8.50
2017-05-26T16:57:47.207Z,9.20
2017-05-26T17:00:15.435Z,9.17
2017-05-26T17:02:44.049Z,9.02
2017-05-26T17:05:12.369Z,8.97
2017-05-26T17:07:40.571Z,9.07
2017-05-26T17:10:08.807Z,9.93
2017-05-26T17:12:37.078Z,9.16
2017-05-26T17:15:05.355Z,8.34
2017-05-26T17:17:33.571Z,9.33
2017-05-26T17:20:01.780Z,8.92
2017-05-26T17:22:29.987Z,8.75
2017-05-26T17:24:58.246Z,8.18
2017-05-26T17:27:26.519Z,8.57
2017-05-26T17:29:54.746Z,8.80
2017-05-26T17:32:23.093Z,8.30
2017-05-26T17:34:51.364Z,8.12
2017-05-26T17:37:19.625Z,9.03
2017-05-26T17:39:47.838Z,8.52
2017-05-26T17:42:16.069Z,7.80
2017-05-26T17:44:44.366Z,8.47
2017-05-26T17:47:13.144Z,9.26
2017-05-26T17:49:41.355Z,9.10
2017-05-26T17:52:09.678Z,8.23
2017-05-26T17:54:37.887Z,7.73
2017-05-26T17:57:06.140Z,8.27
2017-05-26T17:59:34.380Z,7.94
2017-05-26T18:02:02.603Z,7.77
2017-05-26T18:04:30.880Z,7.87
2017-05-26T18:06:59.141Z,8.00
2017-05-26T18:09:27.368Z,8.08
2017-05-26T18:11:55.653Z,7.83
2017-05-26T18:14:23.919Z,9.06
2017-05-26T18:16:52.177Z,8.88
2017-05-26T18:19:20.445Z,8.28
2017-05-26T18:21:48.758Z,5.98
2017-05-26T18:24:16.950Z,3.73
2017-05-26T18:26:45.172Z,3.90
2017-05-26T18:29:13.400Z,3.50
2017-05-26T18:31:41.787Z,3.65
2017-05-26T18:34:09.995Z,2.98
2017-05-26T18:36:38.266Z,3.37
2017-05-26T18:39:06.493Z,3.17
2017-05-26T18:41:34.886Z,3.43
2017-05-26T18:44:03.163Z,3.45
2017-05-26T18:46:31.365Z,3.45
2017-05-26T18:48:59.594Z,2.92
2017-05-26T18:51:27.802Z,2.72
2017-05-26T18:53:56.039Z,2.67
2017-05-26T18:56:24.246Z,2.20
2017-05-26T18:58:52.453Z,2.50
2017-05-26T19:01:21.151Z,2.87
2017-05-26T19:03:49.366Z,2.00
2017-05-26T19:06:17.574Z,2.60
2017-05-26T19:08:45.895Z,2.80
2017-05-26T19:11:14.755Z,2.48
2017-05-26T19:13:43.101Z,2.63
2017-05-26T19:16:11.322Z,2.73
2017-05-26T19:18:39.664Z,3.18
2017-05-26T19:21:08.011Z,3.12
2017-05-26T19:23:36.223Z,2.87
2017-05-26T19:26:04.447Z,3.27
2017-05-26T19:28:32.671Z,3.90
2017-05-26T19:31:00.895Z,3.82
2017-05-26T19:33:29.117Z,4.20
2017-05-26T19:35:57.319Z,4.00
2017-05-26T19:38:25.543Z,4.18
2017-05-26T19:40:52.983Z,3.37
2017-05-26T19:43:21.220Z,4.43
2017-05-26T19:45:49.451Z,3.52
2017-05-26T19:48:17.664Z,3.13
2017-05-26T19:50:45.883Z,4.08
2017-05-26T19:53:14.168Z,4.05
2017-05-26T19:55:42.510Z,3.22
2017-05-26T19:58:10.716Z,3.05
2017-05-26T20:00:38.979Z,3.37
2017-05-26T20:03:07.197Z,3.47
2017-05-26T20:05:35.415Z,3.60
2017-05-26T20:08:03.812Z,3.50
2017-05-26T20:10:32.040Z,3.22
2017-05-26T20:13:00.247Z,3.02
2017-05-26T20:15:28.483Z,2.78
2017-05-26T20:17:56.695Z,2.88
2017-05-26T20:20:25.023Z,2.58
2017-05-26T20:22:53.367Z,2.45
2017-05-26T20:25:21.628Z,3.50
2017-05-26T20:27:49.879Z,3.62
2017-05-26T20:30:18.088Z,2.82
2017-05-26T20:32:46.715Z,3.57
2017-05-26T20:35:14.968Z,2.78
2017-05-26T20:37:43.362Z,3.27
2017-05-26T20:40:11.583Z,3.35
2017-05-26T20:42:39.855Z,2.58
2017-05-26T20:45:08.079Z,3.34
2017-05-26T20:47:36.386Z,3.52
2017-05-26T20:50:04.592Z,3.37
2017-05-26T20:52:32.805Z,3.34
2017-05-26T20:55:01.182Z,2.92
2017-05-26T20:57:29.375Z,3.00
2017-05-26T20:59:57.603Z,2.98
2017-05-26T21:02:25.818Z,3.37
2017-05-26T21:04:54.030Z,3.27
2017-05-26T21:07:22.249Z,3.30
2017-05-26T21:09:50.454Z,2.97
2017-05-26T21:12:18.674Z,3.55
2017-05-26T21:14:46.911Z,3.00
2017-05-26T21:17:15.147Z,3.32
2017-05-26T21:19:43.351Z,3.22
2017-05-26T21:22:11.595Z,3.06
2017-05-26T21:24:39.791Z,3.38
2017-05-26T21:27:08.067Z,3.43
2017-05-26T21:29:36.352Z,3.70
2017-05-26T21:32:04.628Z,3.30
2017-05-26T21:34:32.855Z,2.92
2017-05-26T21:37:01.076Z,2.77
2017-05-26T21:39:29.289Z,3.98
2017-05-26T21:41:57.508Z,3.20
2017-05-26T21:44:25.808Z,3.33
2017-05-26T21:46:54.063Z,3.90
2017-05-26T21:49:22.376Z,3.68
2017-05-26T21:51:50.627Z,4.10
2017-05-26T21:54:18.908Z,3.62
2017-05-26T21:56:47.163Z,3.23
2017-05-26T21:59:15.408Z,3.60
2017-05-26T22:01:43.697Z,3.20
2017-05-26T22:04:12.003Z,3.67
2017-05-26T22:06:40.272Z,3.23
2017-05-26T22:09:08.548Z,3.55
2017-05-26T22:11:36.754Z,3.55
2017-05-26T22:14:05.073Z,3.84
2017-05-26T22:16:33.391Z,3.53
2017-05-26T22:19:01.604Z,3.64
2017-05-26T22:21:29.944Z,3.42
2017-05-26T22:23:58.210Z,3.58
2017-05-26T22:26:26.423Z,3.00
2017-05-26T22:28:54.691Z,3.43
2017-05-26T22:31:22.907Z,4.15
2017-05-26T22:33:51.208Z,5.40
2017-05-26T22:36:19.436Z,5.23
2017-05-26T22:38:47.658Z,3.28
2017-05-26T22:41:15.871Z,3.42
2017-05-26T22:43:44.080Z,3.50
2017-05-26T22:46:12.298Z,3.12
2017-05-26T22:48:40.520Z,3.38
2017-05-26T22:51:08.753Z,3.25
2017-05-26T22:53:36.965Z,3.30
2017-05-26T22:56:05.182Z,3.60
2017-05-26T22:58:33.455Z,3.80
2017-05-26T23:01:01.683Z,5.27
2017-05-26T23:03:29.892Z,3.88
2017-05-26T23:05:58.101Z,4.70
2017-05-26T23:08:26.340Z,3.43
2017-05-26T23:10:54.560Z,3.60
2017-05-26T23:13:22.935Z,3.52
2017-05-26T23:15:51.148Z,3.50
2017-05-26T23:18:19.360Z,3.70
2017-05-26T23:20:47.575Z,3.62
2017-05-26T23:23:15.887Z,3.86
2017-05-26T23:25:44.137Z,3.50
2017-05-26T23:28:12.449Z,3.62
2017-05-26T23:30:40.663Z,3.68
2017-05-26T23:33:08.900Z,3.72
2017-05-26T23:35:37.131Z,3.80
2017-05-26T23:38:05.436Z,3.68
2017-05-26T23:40:33.635Z,3.93
2017-05-26T23:43:01.974Z,3.32
2017-05-26T23:45:30.173Z,4.23
2017-05-26T23:47:58.402Z,3.68
2017-05-26T23:50:26.715Z,3.78
2017-05-26T23:52:54.940Z,4.27
2017-05-26T23:55:23.147Z,3.44
2017-05-26T23:57:51.448Z,4.02
